Time,TemperatureF,DewpointF,PressureIn,WindDirection,WindDirectionDegrees,WindSpeedMPH,WindSpeedGustMPH,Humidity,HourlyPrecipIn,Conditions,Clouds,dailyrainin,SoftwareType,DateUTC
2013-08-04 00:00:00,64.3,56.2,30.02,NNE,12,1.0,6.0,75,0.00,,---,0.00,VWS V14.01,2013-08-04 04:00:00,
2013-08-04 00:01:00,62.0,54.7,30.03,NE,37,0.0,0.0,77,0.00,,---,0.00,VWS V14.01,2013-08-04 04:01:00,
2013-08-04 00:02:00,61.9,54.6,30.03,NE,37,0.0,0.0,77,0.00,,---,0.00,VWS V14.01,2013-08-04 04:02:00,
2013-08-04 00:03:00,61.9,54.6,30.03,NE,37,0.0,0.0,77,0.00,,---,0.00,VWS V14.01,2013-08-04 04:03:00,
2013-08-04 00:08:00,61.5,54.2,30.03,NE,37,0.0,0.0,77,0.00,,---,0.00,VWS V14.01,2013-08-04 04:08:00,
2013-08-04 00:13:00,60.9,54.0,30.03,NE,37,0.0,0.0,78,0.00,,---,0.00,VWS V14.01,2013-08-04 04:13:00,
2013-08-04 00:18:00,60.5,54.0,30.03,NE,37,0.0,0.0,79,0.00,,---,0.00,VWS V14.01,2013-08-04 04:18:00,
2013-08-04 00:23:00,60.1,53.9,30.03,NE,37,0.0,0.0,80,0.00,,---,0.00,VWS V14.01,2013-08-04 04:23:00,
2013-08-04 00:29:00,59.8,54.3,30.04,NE,37,0.0,0.0,82,0.00,,---,0.00,VWS V14.01,2013-08-04 04:29:00,
2013-08-04 00:34:00,59.3,54.2,30.04,NE,37,0.0,0.0,83,0.00,,---,0.00,VWS V14.01,2013-08-04 04:34:00,
2013-08-04 00:39:00,59.0,54.2,30.04,NE,37,0.0,0.0,84,0.00,,---,0.00,VWS V14.01,2013-08-04 04:39:00,
2013-08-04 00:44:00,58.7,54.2,30.04,NE,37,0.0,0.0,85,0.00,,---,0.00,VWS V14.01,2013-08-04 04:44:00,
2013-08-04 00:49:00,58.4,54.2,30.04,NE,37,0.0,0.0,86,0.00,,---,0.00,VWS V14.01,2013-08-04 04:49:00,
2013-08-04 00:54:00,58.1,53.9,30.04,NE,37,0.0,0.0,86,0.00,,---,0.00,VWS V14.01,2013-08-04 04:54:00,
2013-08-04 00:59:00,57.6,53.5,30.04,NE,37,0.0,0.0,86,0.00,,---,0.00,VWS V14.01,2013-08-04 04:59:00,
2013-08-04 01:00:00,62.0,54.7,30.03,NE,37,0.0,6.0,77,0.00,,---,0.00,VWS V14.01,2013-08-04 05:00:00,
2013-08-04 01:05:00,57.1,53.3,30.04,NE,37,0.0,0.0,87,0.00,,---,0.00,VWS V14.01,2013-08-04 05:05:00,
2013-08-04 01:10:00,56.7,53.2,30.05,NE,37,0.0,0.0,88,0.00,,---,0.00,VWS V14.01,2013-08-04 05:10:00,
2013-08-04 01:15:00,56.5,53.3,30.04,NE,37,0.0,0.0,89,0.00,,---,0.00,VWS V14.01,2013-08-04 05:15:00,
2013-08-04 01:20:00,56.2,53.3,30.04,NE,37,0.0,0.0,90,0.00,,---,0.00,VWS V14.01,2013-08-04 05:20:00,
2013-08-04 01:26:00,56.0,53.1,30.04,NE,37,0.0,0.0,90,0.00,,---,0.00,VWS V14.01,2013-08-04 05:26:00,
2013-08-04 01:31:00,55.7,52.8,30.04,NE,37,0.0,0.0,90,0.00,,---,0.00,VWS V14.01,2013-08-04 05:31:00,
2013-08-04 01:36:00,55.3,52.7,30.04,NE,37,0.0,0.0,91,0.00,,---,0.00,VWS V14.01,2013-08-04 05:36:00,
2013-08-04 01:41:00,55.0,52.4,30.05,NE,37,0.0,0.0,91,0.00,,---,0.00,VWS V14.01,2013-08-04 05:41:00,
2013-08-04 01:46:00,54.7,52.4,30.04,NE,37,0.0,0.0,92,0.00,,---,0.00,VWS V14.01,2013-08-04 05:46:00,
2013-08-04 01:51:00,54.5,52.2,30.05,NE,37,0.0,0.0,92,0.00,,---,0.00,VWS V14.01,2013-08-04 05:51:00,
2013-08-04 01:57:00,54.5,52.5,30.04,NE,37,0.0,0.0,93,0.00,,---,0.00,VWS V14.01,2013-08-04 05:57:00,
2013-08-04 02:00:00,57.5,53.3,30.04,NE,37,0.0,0.0,86,0.00,,---,0.00,VWS V14.01,2013-08-04 06:00:00,
2013-08-04 02:02:00,54.7,52.7,30.05,NE,37,0.0,0.0,93,0.00,,---,0.00,VWS V14.01,2013-08-04 06:02:00,
2013-08-04 02:07:00,54.6,52.6,30.05,NE,37,0.0,0.0,93,0.00,,---,0.00,VWS V14.01,2013-08-04 06:07:00,
2013-08-04 02:12:00,54.3,52.3,30.05,NE,37,0.0,0.0,93,0.00,,---,0.00,VWS V14.01,2013-08-04 06:12:00,
2013-08-04 02:17:00,54.0,52.0,30.05,NE,37,0.0,0.0,93,0.00,,---,0.00,VWS V14.01,2013-08-04 06:17:00,
2013-08-04 02:23:00,53.9,52.2,30.05,NE,37,0.0,0.0,94,0.00,,---,0.00,VWS V14.01,2013-08-04 06:23:00,
2013-08-04 02:28:00,53.9,52.2,30.05,NNW,345,0.0,0.0,94,0.00,,---,0.00,VWS V14.01,2013-08-04 06:28:00,
2013-08-04 02:33:00,54.0,52.3,30.05,NNW,346,0.0,0.0,94,0.00,,---,0.00,VWS V14.01,2013-08-04 06:33:00,
2013-08-04 02:38:00,53.9,52.2,30.05,NNW,346,0.0,0.0,94,0.00,,---,0.00,VWS V14.01,2013-08-04 06:38:00,
2013-08-04 02:43:00,53.9,52.2,30.05,NNW,346,0.0,0.0,94,0.00,,---,0.00,VWS V14.01,2013-08-04 06:43:00,
2013-08-04 02:48:00,53.9,52.2,30.05,NNW,346,0.0,0.0,94,0.00,,---,0.00,VWS V14.01,2013-08-04 06:48:00,
2013-08-04 02:54:00,54.1,52.7,30.05,NNW,345,0.0,0.0,95,0.00,,---,0.00,VWS V14.01,2013-08-04 06:54:00,
2013-08-04 02:59:00,54.1,52.4,30.05,NNW,346,0.0,0.0,94,0.00,,---,0.00,VWS V14.01,2013-08-04 06:59:00,
2013-08-04 03:00:00,54.7,52.7,30.05,NE,37,0.0,0.0,93,0.00,,---,0.00,VWS V14.01,2013-08-04 07:00:00,
2013-08-04 03:04:00,54.0,52.3,30.05,NNW,346,0.0,0.0,94,0.00,,---,0.00,VWS V14.01,2013-08-04 07:04:00,
2013-08-04 03:09:00,54.3,52.9,30.05,NNW,346,0.0,0.0,95,0.00,,---,0.00,VWS V14.01,2013-08-04 07:09:00,
2013-08-04 03:14:00,54.6,52.9,30.06,NNE,12,0.0,0.0,94,0.00,,---,0.00,VWS V14.01,2013-08-04 07:14:00,
2013-08-04 03:19:00,54.7,53.0,30.06,NNE,13,0.0,0.0,94,0.00,,---,0.00,VWS V14.01,2013-08-04 07:19:00,
2013-08-04 03:24:00,54.8,52.8,30.05,NNE,19,0.0,1.0,93,0.00,,---,0.00,VWS V14.01,2013-08-04 07:24:00,
2013-08-04 03:30:00,54.8,52.8,30.05,North,350,0.0,1.0,93,0.00,,---,0.00,VWS V14.01,2013-08-04 07:30:00,
2013-08-04 03:35:00,54.9,52.9,30.06,North,350,0.0,1.0,93,0.00,,---,0.00,VWS V14.01,2013-08-04 07:35:00,
2013-08-04 03:39:00,54.8,52.5,30.06,North,349,0.0,1.0,92,0.00,,---,0.00,VWS V14.01,2013-08-04 07:39:00,
2013-08-04 03:45:00,54.6,52.3,30.06,North,350,0.0,1.0,92,0.00,,---,0.00,VWS V14.01,2013-08-04 07:45:00,
2013-08-04 03:50:00,54.6,52.6,30.06,NNW,332,0.0,1.0,93,0.00,,---,0.00,VWS V14.01,2013-08-04 07:50:00,
2013-08-04 03:55:00,54.7,52.7,30.06,NNW,333,1.0,2.0,93,0.00,,---,0.00,VWS V14.01,2013-08-04 07:55:00,
2013-08-04 04:00:00,54.7,52.4,30.06,NW,326,0.0,2.0,92,0.00,,---,0.00,VWS V14.01,2013-08-04 08:00:00,
2013-08-04 04:05:00,54.9,52.9,30.06,NE,34,0.0,2.0,93,0.00,,---,0.00,VWS V14.01,2013-08-04 08:05:00,
2013-08-04 04:10:00,55.2,52.9,30.06,North,360,0.0,3.0,92,0.00,,---,0.00,VWS V14.01,2013-08-04 08:10:00,
2013-08-04 04:16:00,55.3,53.0,30.06,NNE,16,1.0,4.0,92,0.00,,---,0.00,VWS V14.01,2013-08-04 08:16:00,
2013-08-04 04:21:00,55.5,52.9,30.06,NNE,12,2.0,4.0,91,0.00,,---,0.00,VWS V14.01,2013-08-04 08:21:00,
2013-08-04 04:26:00,55.7,53.1,30.07,NW,323,0.0,4.0,91,0.00,,---,0.00,VWS V14.01,2013-08-04 08:26:00,
2013-08-04 04:31:00,55.7,53.1,30.07,NW,326,1.0,4.0,91,0.00,,---,0.00,VWS V14.01,2013-08-04 08:31:00,
2013-08-04 04:36:00,55.8,53.2,30.07,North,356,1.0,4.0,91,0.00,,---,0.00,VWS V14.01,2013-08-04 08:36:00,
2013-08-04 04:42:00,55.8,53.2,30.07,NNW,340,2.0,4.0,91,0.00,,---,0.00,VWS V14.01,2013-08-04 08:42:00,
2013-08-04 04:47:00,55.8,53.2,30.07,North,352,0.0,4.0,91,0.00,,---,0.00,VWS V14.01,2013-08-04 08:47:00,
2013-08-04 04:52:00,55.7,52.8,30.07,NNE,19,0.0,4.0,90,0.00,,---,0.00,VWS V14.01,2013-08-04 08:52:00,
2013-08-04 04:57:00,55.5,52.9,30.07,North,9,0.0,4.0,91,0.00,,---,0.00,VWS V14.01,2013-08-04 08:57:00,
2013-08-04 05:00:00,54.7,52.4,30.06,NNW,342,1.0,2.0,92,0.00,,---,0.00,VWS V14.01,2013-08-04 09:00:00,
2013-08-04 05:02:00,55.3,52.7,30.07,NNW,329,1.0,1.0,91,0.00,,---,0.00,VWS V14.01,2013-08-04 09:02:00,
2013-08-04 05:07:00,55.3,53.0,30.08,NW,304,0.0,2.0,92,0.00,,---,0.00,VWS V14.01,2013-08-04 09:07:00,
2013-08-04 05:13:00,55.2,52.9,30.07,NW,307,0.0,2.0,92,0.00,,---,0.00,VWS V14.01,2013-08-04 09:13:00,
2013-08-04 05:18:00,55.1,52.8,30.07,NW,316,0.0,2.0,92,0.00,,---,0.00,VWS V14.01,2013-08-04 09:18:00,
2013-08-04 05:23:00,55.0,52.7,30.07,NNW,341,1.0,3.0,92,0.00,,---,0.00,VWS V14.01,2013-08-04 09:23:00,
2013-08-04 05:28:00,55.0,52.7,30.07,NW,304,0.0,3.0,92,0.00,,---,0.00,VWS V14.01,2013-08-04 09:28:00,
2013-08-04 05:33:00,54.9,52.6,30.07,NW,326,1.0,3.0,92,0.00,,---,0.00,VWS V14.01,2013-08-04 09:33:00,
2013-08-04 05:38:00,54.7,52.4,30.07,NW,312,1.0,3.0,92,0.00,,---,0.00,VWS V14.01,2013-08-04 09:38:00,
2013-08-04 05:43:00,54.6,52.3,30.07,WNW,293,0.0,3.0,92,0.00,,---,0.00,VWS V14.01,2013-08-04 09:43:00,
2013-08-04 05:48:00,54.5,52.5,30.07,North,356,1.0,3.0,93,0.00,,---,0.00,VWS V14.01,2013-08-04 09:48:00,
2013-08-04 05:53:00,54.4,52.4,30.07,North,352,0.0,3.0,93,0.00,,---,0.00,VWS V14.01,2013-08-04 09:53:00,
2013-08-04 05:58:00,54.3,52.3,30.07,NNE,18,0.0,3.0,93,0.00,,---,0.00,VWS V14.01,2013-08-04 09:58:00,
2013-08-04 06:00:00,55.4,52.8,30.07,NNW,348,1.0,4.0,91,0.00,,---,0.00,VWS V14.01,2013-08-04 10:00:00,
2013-08-04 06:04:00,54.2,52.2,30.08,NW,326,1.0,2.0,93,0.00,,---,0.00,VWS V14.01,2013-08-04 10:04:00,
2013-08-04 06:08:00,54.1,52.1,30.08,NW,314,0.0,5.0,93,0.00,,---,0.00,VWS V14.01,2013-08-04 10:08:00,
2013-08-04 06:14:00,54.1,52.4,30.08,North,357,3.0,5.0,94,0.00,,---,0.00,VWS V14.01,2013-08-04 10:14:00,
2013-08-04 06:19:00,54.1,52.1,30.08,NNE,29,1.0,5.0,93,0.00,,---,0.00,VWS V14.01,2013-08-04 10:19:00,
2013-08-04 06:24:00,54.0,52.0,30.08,NNE,25,1.0,5.0,93,0.00,,---,0.00,VWS V14.01,2013-08-04 10:24:00,
2013-08-04 06:29:00,54.0,52.0,30.08,NNE,21,0.0,5.0,93,0.00,,---,0.00,VWS V14.01,2013-08-04 10:29:00,
2013-08-04 06:34:00,53.9,51.9,30.08,NW,306,4.0,5.0,93,0.00,,---,0.00,VWS V14.01,2013-08-04 10:34:00,
2013-08-04 06:39:00,54.0,51.7,30.08,NW,309,1.0,5.0,92,0.00,,---,0.00,VWS V14.01,2013-08-04 10:39:00,
2013-08-04 06:44:00,54.0,51.7,30.08,NNW,338,0.0,5.0,92,0.00,,---,0.00,VWS V14.01,2013-08-04 10:44:00,
2013-08-04 06:50:00,54.0,51.7,30.08,NW,322,2.0,5.0,92,0.00,,---,0.00,VWS V14.01,2013-08-04 10:50:00,
2013-08-04 06:55:00,54.1,51.8,30.08,North,8,3.0,5.0,92,0.00,,---,0.00,VWS V14.01,2013-08-04 10:55:00,
2013-08-04 07:00:00,54.3,52.0,30.08,NW,307,0.0,5.0,92,0.00,,---,0.00,VWS V14.01,2013-08-04 11:00:00,
2013-08-04 07:05:00,54.7,52.1,30.08,NNW,346,2.0,3.0,91,0.00,,---,0.00,VWS V14.01,2013-08-04 11:05:00,
2013-08-04 07:10:00,54.9,52.3,30.08,NNW,339,3.0,4.0,91,0.00,,---,0.00,VWS V14.01,2013-08-04 11:10:00,
2013-08-04 07:15:00,55.1,52.5,30.08,NW,316,1.0,4.0,91,0.00,,---,0.00,VWS V14.01,2013-08-04 11:15:00,
2013-08-04 07:20:00,55.3,52.4,30.08,NW,326,1.0,4.0,90,0.00,,---,0.00,VWS V14.01,2013-08-04 11:20:00,
2013-08-04 07:25:00,55.6,52.7,30.09,WNW,300,4.0,4.0,90,0.00,,---,0.00,VWS V14.01,2013-08-04 11:25:00,
2013-08-04 07:30:00,55.7,52.8,30.09,North,352,3.0,4.0,90,0.00,,---,0.00,VWS V14.01,2013-08-04 11:30:00,
2013-08-04 07:35:00,56.0,52.8,30.09,North,11,3.0,5.0,89,0.00,,---,0.00,VWS V14.01,2013-08-04 11:35:00,
2013-08-04 07:40:00,56.3,53.1,30.09,NNE,29,7.0,7.0,89,0.00,,---,0.00,VWS V14.01,2013-08-04 11:40:00,
2013-08-04 07:46:00,56.5,53.0,30.09,North,352,4.0,10.0,88,0.00,,---,0.00,VWS V14.01,2013-08-04 11:46:00,
2013-08-04 07:51:00,56.8,53.0,30.09,NW,323,3.0,10.0,87,0.00,,---,0.00,VWS V14.01,2013-08-04 11:51:00,
2013-08-04 07:56:00,57.1,53.3,30.09,NNW,336,7.0,10.0,87,0.00,,---,0.00,VWS V14.01,2013-08-04 11:56:00,
2013-08-04 08:00:00,57.4,53.2,30.10,North,5,8.0,8.0,86,0.00,,---,0.00,VWS V14.01,2013-08-04 12:00:00,
2013-08-04 08:06:00,57.7,53.5,30.09,NNW,338,2.0,8.0,86,0.00,,---,0.00,VWS V14.01,2013-08-04 12:06:00,
2013-08-04 08:11:00,57.9,53.4,30.10,North,352,5.0,9.0,85,0.00,,---,0.00,VWS V14.01,2013-08-04 12:11:00,
2013-08-04 08:16:00,58.0,53.2,30.10,NNE,21,3.0,11.0,84,0.00,,---,0.00,VWS V14.01,2013-08-04 12:16:00,
2013-08-04 08:22:00,58.3,53.8,30.10,North,352,4.0,11.0,85,0.00,,---,0.00,VWS V14.01,2013-08-04 12:22:00,
2013-08-04 08:27:00,58.6,53.8,30.10,North,6,3.0,11.0,84,0.00,,---,0.00,VWS V14.01,2013-08-04 12:27:00,
2013-08-04 08:32:00,58.9,54.1,30.10,North,356,3.0,11.0,84,0.00,,---,0.00,VWS V14.01,2013-08-04 12:32:00,
2013-08-04 08:37:00,59.2,54.0,30.10,NW,312,5.0,11.0,83,0.00,,---,0.00,VWS V14.01,2013-08-04 12:37:00,
2013-08-04 08:42:00,59.4,53.9,30.10,NNW,336,5.0,11.0,82,0.00,,---,0.00,VWS V14.01,2013-08-04 12:42:00,
2013-08-04 08:47:00,59.5,54.0,30.10,NNW,344,9.0,12.0,82,0.00,,---,0.00,VWS V14.01,2013-08-04 12:47:00,
2013-08-04 08:52:00,59.5,54.0,30.10,NW,318,3.0,12.0,82,0.00,,---,0.00,VWS V14.01,2013-08-04 12:52:00,
2013-08-04 08:58:00,59.6,54.1,30.10,NW,319,2.0,12.0,82,0.00,,---,0.00,VWS V14.01,2013-08-04 12:58:00,
2013-08-04 09:00:00,57.4,53.2,30.10,NNW,335,5.0,12.0,86,0.00,,---,0.00,VWS V14.01,2013-08-04 13:00:00,
2013-08-04 09:03:00,59.8,54.3,30.11,NNE,15,8.0,10.0,82,0.00,,---,0.00,VWS V14.01,2013-08-04 13:03:00,
2013-08-04 09:08:00,59.8,54.3,30.11,North,349,6.0,14.0,82,0.00,,---,0.00,VWS V14.01,2013-08-04 13:08:00,
2013-08-04 09:13:00,60.1,54.6,30.11,NW,326,6.0,14.0,82,0.00,,---,0.00,VWS V14.01,2013-08-04 13:13:00,
2013-08-04 09:18:00,60.2,54.4,30.11,NW,309,7.0,14.0,81,0.00,,---,0.00,VWS V14.01,2013-08-04 13:18:00,
2013-08-04 09:23:00,60.4,54.9,30.11,NNW,328,3.0,14.0,82,0.00,,---,0.00,VWS V14.01,2013-08-04 13:23:00,
2013-08-04 09:29:00,60.8,54.9,30.12,NW,304,4.0,14.0,81,0.00,,---,0.00,VWS V14.01,2013-08-04 13:29:00,
2013-08-04 09:34:00,60.6,54.4,30.11,NNE,21,7.0,14.0,80,0.00,,---,0.00,VWS V14.01,2013-08-04 13:34:00,
2013-08-04 09:39:00,60.9,54.7,30.12,NNW,345,4.0,14.0,80,0.00,,---,0.00,VWS V14.01,2013-08-04 13:39:00,
2013-08-04 09:44:00,61.6,56.1,30.11,NNE,13,9.0,14.0,82,0.00,,---,0.00,VWS V14.01,2013-08-04 13:44:00,
2013-08-04 09:49:00,61.8,55.2,30.11,West,281,5.0,14.0,79,0.00,,---,0.00,VWS V14.01,2013-08-04 13:49:00,
2013-08-04 09:55:00,61.7,54.8,30.11,NW,321,4.0,14.0,78,0.00,,---,0.00,VWS V14.01,2013-08-04 13:55:00,
2013-08-04 10:00:00,61.4,54.8,30.11,NNW,335,4.0,14.0,79,0.00,,---,0.00,VWS V14.01,2013-08-04 14:00:00,
2013-08-04 10:05:00,61.1,54.2,30.11,NW,319,12.0,12.0,78,0.00,,---,0.00,VWS V14.01,2013-08-04 14:05:00,
2013-08-04 10:10:00,61.1,54.2,30.12,NNW,338,7.0,13.0,78,0.00,,---,0.00,VWS V14.01,2013-08-04 14:10:00,
2013-08-04 10:15:00,61.1,54.2,30.12,NW,316,5.0,13.0,78,0.00,,---,0.00,VWS V14.01,2013-08-04 14:15:00,
2013-08-04 10:21:00,61.6,54.3,30.12,NNE,26,5.0,13.0,77,0.00,,---,0.00,VWS V14.01,2013-08-04 14:21:00,
2013-08-04 10:26:00,62.2,55.3,30.12,NW,316,6.0,13.0,78,0.00,,---,0.00,VWS V14.01,2013-08-04 14:26:00,
2013-08-04 10:31:00,62.6,54.6,30.12,NW,304,3.0,14.0,75,0.00,,---,0.00,VWS V14.01,2013-08-04 14:31:00,
2013-08-04 10:37:00,62.6,54.6,30.12,NW,317,8.0,14.0,75,0.00,,---,0.00,VWS V14.01,2013-08-04 14:37:00,
2013-08-04 10:42:00,62.4,54.8,30.12,North,349,5.0,14.0,76,0.00,,---,0.00,VWS V14.01,2013-08-04 14:42:00,
2013-08-04 10:47:00,62.9,54.9,30.12,NNE,29,10.0,14.0,75,0.00,,---,0.00,VWS V14.01,2013-08-04 14:47:00,
2013-08-04 10:52:00,63.2,54.8,30.13,North,8,7.0,14.0,74,0.00,,---,0.00,VWS V14.01,2013-08-04 14:52:00,
2013-08-04 10:58:00,63.5,55.8,30.13,North,354,6.0,14.0,76,0.00,,---,0.00,VWS V14.01,2013-08-04 14:58:00,
2013-08-04 11:00:00,61.4,54.5,30.11,NNW,347,5.0,14.0,78,0.00,,---,0.00,VWS V14.01,2013-08-04 15:00:00,
2013-08-04 11:03:00,64.1,56.0,30.13,WNW,296,5.0,9.0,75,0.00,,---,0.00,VWS V14.01,2013-08-04 15:03:00,
2013-08-04 11:07:00,64.2,55.8,30.13,West,276,5.0,9.0,74,0.00,,---,0.00,VWS V14.01,2013-08-04 15:07:00,
2013-08-04 11:13:00,64.4,55.2,30.13,NW,319,4.0,11.0,72,0.00,,---,0.00,VWS V14.01,2013-08-04 15:13:00,
2013-08-04 11:18:00,64.5,54.9,30.13,NE,39,7.0,13.0,71,0.00,,---,0.00,VWS V14.01,2013-08-04 15:18:00,
2013-08-04 11:23:00,64.7,54.7,30.13,NNE,33,5.0,14.0,70,0.00,,---,0.00,VWS V14.01,2013-08-04 15:23:00,
2013-08-04 11:28:00,65.4,56.5,30.13,North,349,4.0,14.0,73,0.00,,---,0.00,VWS V14.01,2013-08-04 15:28:00,
2013-08-04 11:33:00,65.5,55.1,30.13,WNW,297,10.0,14.0,69,0.00,,---,0.00,VWS V14.01,2013-08-04 15:33:00,
2013-08-04 11:38:00,65.1,54.7,30.13,NW,304,7.0,14.0,69,0.00,,---,0.00,VWS V14.01,2013-08-04 15:38:00,
2013-08-04 11:43:00,64.8,56.0,30.13,NW,306,3.0,14.0,73,0.00,,---,0.00,VWS V14.01,2013-08-04 15:43:00,
2013-08-04 11:49:00,65.1,55.5,30.13,WNW,298,5.0,14.0,71,0.00,,---,0.00,VWS V14.01,2013-08-04 15:49:00,
2013-08-04 11:53:00,65.8,56.2,30.13,NNE,25,6.0,14.0,71,0.00,,---,0.00,VWS V14.01,2013-08-04 15:53:00,
2013-08-04 11:59:00,65.8,55.4,30.13,NW,315,5.0,14.0,69,0.00,,---,0.00,VWS V14.01,2013-08-04 15:59:00,
2013-08-04 12:00:00,63.8,56.1,30.13,NW,316,5.0,14.0,76,0.00,,---,0.00,VWS V14.01,2013-08-04 16:00:00,
2013-08-04 12:04:00,66.0,56.0,30.14,NNW,347,10.0,12.0,70,0.00,,---,0.00,VWS V14.01,2013-08-04 16:04:00,
2013-08-04 12:09:00,66.0,56.0,30.14,NE,44,9.0,16.0,70,0.00,,---,0.00,VWS V14.01,2013-08-04 16:09:00,
2013-08-04 12:14:00,65.8,55.4,30.14,North,352,10.0,16.0,69,0.00,,---,0.00,VWS V14.01,2013-08-04 16:14:00,
2013-08-04 12:19:00,66.1,56.4,30.14,NNW,336,10.0,16.0,71,0.00,,---,0.00,VWS V14.01,2013-08-04 16:19:00,
2013-08-04 12:24:00,66.2,56.1,30.14,NE,47,11.0,16.0,70,0.00,,---,0.00,VWS V14.01,2013-08-04 16:24:00,
2013-08-04 12:29:00,66.1,56.4,30.14,NNW,342,4.0,16.0,71,0.00,,---,0.00,VWS V14.01,2013-08-04 16:29:00,
2013-08-04 12:34:00,66.1,56.0,30.14,NNE,13,6.0,16.0,70,0.00,,---,0.00,VWS V14.01,2013-08-04 16:34:00,
2013-08-04 12:39:00,66.1,55.2,30.14,NNW,330,7.0,16.0,68,0.00,,---,0.00,VWS V14.01,2013-08-04 16:39:00,
2013-08-04 12:45:00,66.0,55.2,30.14,WNW,290,4.0,16.0,68,0.00,,---,0.00,VWS V14.01,2013-08-04 16:45:00,
2013-08-04 12:50:00,66.3,55.4,30.14,NNW,335,3.0,16.0,68,0.00,,---,0.00,VWS V14.01,2013-08-04 16:50:00,
2013-08-04 12:55:00,66.6,55.7,30.14,NNW,335,10.0,16.0,68,0.00,,---,0.00,VWS V14.01,2013-08-04 16:55:00,
2013-08-04 13:00:00,66.9,56.0,30.13,NNW,329,8.0,16.0,68,0.00,,---,0.00,VWS V14.01,2013-08-04 17:00:00,
2013-08-04 13:05:00,66.7,56.2,30.13,North,350,5.0,9.0,69,0.00,,---,0.00,VWS V14.01,2013-08-04 17:05:00,
2013-08-04 13:10:00,66.6,56.5,30.13,NNE,26,2.0,9.0,70,0.00,,---,0.00,VWS V14.01,2013-08-04 17:10:00,
2013-08-04 13:15:00,67.0,55.3,30.13,WNW,301,3.0,12.0,66,0.00,,---,0.00,VWS V14.01,2013-08-04 17:15:00,
2013-08-04 13:21:00,67.1,55.0,30.12,North,6,11.0,14.0,65,0.00,,---,0.00,VWS V14.01,2013-08-04 17:21:00,
2013-08-04 13:26:00,66.7,55.8,30.12,NNE,13,4.0,15.0,68,0.00,,---,0.00,VWS V14.01,2013-08-04 17:26:00,
2013-08-04 13:31:00,66.4,55.1,30.13,WNW,301,4.0,15.0,67,0.00,,---,0.00,VWS V14.01,2013-08-04 17:31:00,
2013-08-04 13:36:00,66.5,54.8,30.13,WNW,292,2.0,15.0,66,0.00,,---,0.00,VWS V14.01,2013-08-04 17:36:00,
2013-08-04 13:41:00,66.7,55.8,30.12,NE,43,4.0,15.0,68,0.00,,---,0.00,VWS V14.01,2013-08-04 17:41:00,
2013-08-04 13:46:00,67.4,56.1,30.13,North,354,9.0,15.0,67,0.00,,---,0.00,VWS V14.01,2013-08-04 17:46:00,
2013-08-04 13:51:00,67.5,55.8,30.13,NNE,27,4.0,15.0,66,0.00,,---,0.00,VWS V14.01,2013-08-04 17:51:00,
2013-08-04 13:56:00,67.3,56.0,30.13,NNW,334,4.0,15.0,67,0.00,,---,0.00,VWS V14.01,2013-08-04 17:56:00,
2013-08-04 14:00:00,66.9,56.0,30.13,NE,35,6.0,16.0,68,0.00,,---,0.00,VWS V14.01,2013-08-04 18:00:00,
2013-08-04 14:01:00,67.6,57.1,30.12,North,8,5.0,6.0,69,0.00,,---,0.00,VWS V14.01,2013-08-04 18:01:00,
2013-08-04 14:07:00,68.1,56.7,30.12,NE,38,8.0,8.0,67,0.00,,---,0.00,VWS V14.01,2013-08-04 18:07:00,
2013-08-04 14:12:00,68.2,56.8,30.12,NNW,335,7.0,8.0,67,0.00,,---,0.00,VWS V14.01,2013-08-04 18:12:00,
2013-08-04 14:17:00,68.3,56.5,30.13,NNE,18,9.0,14.0,66,0.00,,---,0.00,VWS V14.01,2013-08-04 18:17:00,
2013-08-04 14:22:00,68.0,57.1,30.12,NNE,26,8.0,14.0,68,0.00,,---,0.00,VWS V14.01,2013-08-04 18:22:00,
2013-08-04 14:27:00,68.0,56.7,30.12,NNE,25,4.0,14.0,67,0.00,,---,0.00,VWS V14.01,2013-08-04 18:27:00,
2013-08-04 14:32:00,68.1,55.5,30.12,NNE,20,4.0,14.0,64,0.00,,---,0.00,VWS V14.01,2013-08-04 18:32:00,
2013-08-04 14:37:00,67.9,55.7,30.12,NE,43,6.0,14.0,65,0.00,,---,0.00,VWS V14.01,2013-08-04 18:37:00,
2013-08-04 14:42:00,67.9,55.7,30.12,NNW,332,6.0,14.0,65,0.00,,---,0.00,VWS V14.01,2013-08-04 18:42:00,
2013-08-04 14:48:00,68.4,55.3,30.12,NE,36,8.0,14.0,63,0.00,,---,0.00,VWS V14.01,2013-08-04 18:48:00,
2013-08-04 14:53:00,68.5,55.0,30.11,NNE,23,7.0,14.0,62,0.00,,---,0.00,VWS V14.01,2013-08-04 18:53:00,
2013-08-04 14:58:00,69.0,54.5,30.11,NE,48,10.0,14.0,60,0.00,,---,0.00,VWS V14.01,2013-08-04 18:58:00,
2013-08-04 15:03:00,69.0,55.0,30.11,NNW,335,4.0,12.0,61,0.00,,---,0.00,VWS V14.01,2013-08-04 19:03:00,
2013-08-04 15:08:00,69.1,53.2,30.11,NE,36,6.0,12.0,57,0.00,,---,0.00,VWS V14.01,2013-08-04 19:08:00,
2013-08-04 15:13:00,69.5,55.5,30.11,NNE,26,14.0,14.0,61,0.00,,---,0.00,VWS V14.01,2013-08-04 19:13:00,
2013-08-04 15:19:00,69.6,54.7,30.11,NNE,25,5.0,14.0,59,0.00,,---,0.00,VWS V14.01,2013-08-04 19:19:00,
2013-08-04 15:24:00,69.4,52.5,30.11,NW,323,4.0,14.0,55,0.00,,---,0.00,VWS V14.01,2013-08-04 19:24:00,
2013-08-04 15:29:00,69.7,54.8,30.11,NNE,25,4.0,14.0,59,0.00,,---,0.00,VWS V14.01,2013-08-04 19:29:00,
2013-08-04 15:34:00,70.0,55.0,30.11,North,6,5.0,14.0,59,0.00,,---,0.00,VWS V14.01,2013-08-04 19:34:00,
2013-08-04 15:39:00,69.8,54.8,30.11,WNW,302,2.0,14.0,59,0.00,,---,0.00,VWS V14.01,2013-08-04 19:39:00,
2013-08-04 15:44:00,69.9,54.5,30.11,WNW,295,5.0,14.0,58,0.00,,---,0.00,VWS V14.01,2013-08-04 19:44:00,
2013-08-04 15:50:00,70.1,51.7,30.11,NNW,332,5.0,14.0,52,0.00,,---,0.00,VWS V14.01,2013-08-04 19:50:00,
2013-08-04 15:54:00,70.0,54.6,30.11,North,354,4.0,14.0,58,0.00,,---,0.00,VWS V14.01,2013-08-04 19:54:00,
2013-08-04 16:00:00,70.3,52.9,30.11,WNW,300,6.0,14.0,54,0.00,,---,0.00,VWS V14.01,2013-08-04 20:00:00,
2013-08-04 16:05:00,70.8,53.8,30.11,North,350,4.0,6.0,55,0.00,,---,0.00,VWS V14.01,2013-08-04 20:05:00,
2013-08-04 16:10:00,70.7,53.8,30.11,North,9,1.0,9.0,55,0.00,,---,0.00,VWS V14.01,2013-08-04 20:10:00,
2013-08-04 16:15:00,70.9,53.4,30.11,NNW,330,7.0,9.0,54,0.00,,---,0.00,VWS V14.01,2013-08-04 20:15:00,
2013-08-04 16:20:00,70.6,53.7,30.11,NW,320,3.0,9.0,55,0.00,,---,0.00,VWS V14.01,2013-08-04 20:20:00,
2013-08-04 16:25:00,70.5,53.6,30.11,NW,305,2.0,9.0,55,0.00,,---,0.00,VWS V14.01,2013-08-04 20:25:00,
2013-08-04 16:31:00,70.5,53.1,30.10,WNW,301,8.0,9.0,54,0.00,,---,0.00,VWS V14.01,2013-08-04 20:31:00,
2013-08-04 16:36:00,70.1,52.7,30.11,ENE,60,1.0,10.0,54,0.00,,---,0.00,VWS V14.01,2013-08-04 20:36:00,
2013-08-04 16:41:00,69.7,53.8,30.11,NNW,342,4.0,10.0,57,0.00,,---,0.00,VWS V14.01,2013-08-04 20:41:00,
2013-08-04 16:46:00,69.3,54.8,30.10,WNW,291,2.0,10.0,60,0.00,,---,0.00,VWS V14.01,2013-08-04 20:46:00,
2013-08-04 16:52:00,69.5,56.4,30.10,NW,324,4.0,10.0,63,0.00,,---,0.00,VWS V14.01,2013-08-04 20:52:00,
2013-08-04 16:57:00,70.0,55.5,30.10,NNE,20,5.0,10.0,60,0.00,,---,0.00,VWS V14.01,2013-08-04 20:57:00,
2013-08-04 17:02:00,70.4,53.5,30.10,NNE,18,2.0,6.0,55,0.00,,---,0.00,VWS V14.01,2013-08-04 21:02:00,
2013-08-04 17:07:00,70.5,54.1,30.09,WNW,285,2.0,7.0,56,0.00,,---,0.00,VWS V14.01,2013-08-04 21:07:00,
2013-08-04 17:12:00,70.5,54.1,30.09,NW,325,3.0,8.0,56,0.00,,---,0.00,VWS V14.01,2013-08-04 21:12:00,
2013-08-04 17:18:00,70.3,52.9,30.09,North,11,4.0,10.0,54,0.00,,---,0.00,VWS V14.01,2013-08-04 21:18:00,
2013-08-04 17:23:00,70.2,53.3,30.09,NNE,25,2.0,10.0,55,0.00,,---,0.00,VWS V14.01,2013-08-04 21:23:00,
2013-08-04 17:28:00,70.5,54.1,30.09,NNW,338,3.0,10.0,56,0.00,,---,0.00,VWS V14.01,2013-08-04 21:28:00,
2013-08-04 17:34:00,70.8,54.8,30.09,NNE,19,2.0,10.0,57,0.00,,---,0.00,VWS V14.01,2013-08-04 21:34:00,
2013-08-04 17:39:00,70.9,53.4,30.09,NE,49,6.0,11.0,54,0.00,,---,0.00,VWS V14.01,2013-08-04 21:39:00,
2013-08-04 17:44:00,70.6,53.7,30.09,NNE,15,4.0,11.0,55,0.00,,---,0.00,VWS V14.01,2013-08-04 21:44:00,
2013-08-04 17:49:00,70.4,52.5,30.10,NNW,344,3.0,11.0,53,0.00,,---,0.00,VWS V14.01,2013-08-04 21:49:00,
2013-08-04 17:54:00,70.3,53.4,30.10,NE,34,3.0,11.0,55,0.00,,---,0.00,VWS V14.01,2013-08-04 21:54:00,
2013-08-04 17:59:00,70.5,53.1,30.09,North,359,3.0,11.0,54,0.00,,---,0.00,VWS V14.01,2013-08-04 21:59:00,
2013-08-04 18:00:00,70.3,53.9,30.10,NNE,18,7.0,10.0,56,0.00,,---,0.00,VWS V14.01,2013-08-04 22:00:00,
2013-08-04 18:04:00,70.9,54.0,30.09,WNW,290,3.0,5.0,55,0.00,,---,0.00,VWS V14.01,2013-08-04 22:04:00,
2013-08-04 18:10:00,70.9,54.4,30.09,NNW,342,2.0,7.0,56,0.00,,---,0.00,VWS V14.01,2013-08-04 22:10:00,
2013-08-04 18:11:00,70.9,54.9,30.09,NW,304,3.0,7.0,57,0.00,,---,0.00,VWS V14.01,2013-08-04 22:11:00,
2013-08-04 18:16:00,70.6,54.6,30.09,WNW,287,2.0,7.0,57,0.00,,---,0.00,VWS V14.01,2013-08-04 22:16:00,
2013-08-04 18:21:00,70.4,55.4,30.09,NE,46,2.0,7.0,59,0.00,,---,0.00,VWS V14.01,2013-08-04 22:21:00,
2013-08-04 18:27:00,70.2,54.8,30.09,NNW,342,2.0,7.0,58,0.00,,---,0.00,VWS V14.01,2013-08-04 22:27:00,
2013-08-04 18:32:00,70.3,54.4,30.09,NE,36,3.0,7.0,57,0.00,,---,0.00,VWS V14.01,2013-08-04 22:32:00,
2013-08-04 18:37:00,70.1,54.7,30.09,NNE,15,1.0,7.0,58,0.00,,---,0.00,VWS V14.01,2013-08-04 22:37:00,
2013-08-04 18:42:00,69.9,54.5,30.09,North,352,2.0,7.0,58,0.00,,---,0.00,VWS V14.01,2013-08-04 22:42:00,
2013-08-04 18:47:00,69.4,54.5,30.09,North,4,1.0,7.0,59,0.00,,---,0.00,VWS V14.01,2013-08-04 22:47:00,
2013-08-04 18:52:00,69.0,54.5,30.09,North,11,0.0,7.0,60,0.00,,---,0.00,VWS V14.01,2013-08-04 22:52:00,
2013-08-04 18:57:00,68.8,55.3,30.09,North,360,0.0,7.0,62,0.00,,---,0.00,VWS V14.01,2013-08-04 22:57:00,
2013-08-04 19:00:00,70.6,53.2,30.09,NNE,25,3.0,11.0,54,0.00,,---,0.00,VWS V14.01,2013-08-04 23:00:00,
2013-08-04 19:03:00,68.4,55.3,30.09,NW,323,0.0,2.0,63,0.00,,---,0.00,VWS V14.01,2013-08-04 23:03:00,
2013-08-04 19:08:00,68.0,55.8,30.09,NNW,330,0.0,2.0,65,0.00,,---,0.00,VWS V14.01,2013-08-04 23:08:00,
2013-08-04 19:13:00,67.7,56.4,30.09,WNW,284,0.0,2.0,67,0.00,,---,0.00,VWS V14.01,2013-08-04 23:13:00,
2013-08-04 19:19:00,67.5,56.2,30.09,WNW,283,0.0,2.0,67,0.00,,---,0.00,VWS V14.01,2013-08-04 23:19:00,
2013-08-04 19:24:00,67.5,56.6,30.09,WNW,284,0.0,2.0,68,0.00,,---,0.00,VWS V14.01,2013-08-04 23:24:00,
2013-08-04 19:29:00,67.6,56.3,30.09,WNW,284,0.0,2.0,67,0.00,,---,0.00,VWS V14.01,2013-08-04 23:29:00,
2013-08-04 19:34:00,67.4,57.3,30.10,WNW,284,0.0,2.0,70,0.00,,---,0.00,VWS V14.01,2013-08-04 23:34:00,
2013-08-04 19:39:00,67.2,56.7,30.10,WNW,284,0.0,2.0,69,0.00,,---,0.00,VWS V14.01,2013-08-04 23:39:00,
2013-08-04 19:44:00,67.0,56.1,30.10,North,1,0.0,2.0,68,0.00,,---,0.00,VWS V14.01,2013-08-04 23:44:00,
2013-08-04 19:49:00,66.9,57.2,30.10,North,1,0.0,2.0,71,0.00,,---,0.00,VWS V14.01,2013-08-04 23:49:00,
2013-08-04 19:55:00,66.8,57.5,30.10,NNE,32,1.0,2.0,72,0.00,,---,0.00,VWS V14.01,2013-08-04 23:55:00,
2013-08-04 20:00:00,66.5,57.6,30.09,ENE,68,1.0,2.0,73,0.00,,---,0.00,VWS V14.01,2013-08-05 00:00:00,
2013-08-04 20:05:00,66.2,57.7,30.10,ENE,77,1.0,2.0,74,0.00,,---,0.00,VWS V14.01,2013-08-05 00:05:00,
2013-08-04 20:10:00,65.9,57.8,30.09,East,91,1.0,2.0,75,0.00,,---,0.00,VWS V14.01,2013-08-05 00:10:00,
2013-08-04 20:15:00,65.6,57.8,30.10,East,90,0.0,2.0,76,0.00,,---,0.00,VWS V14.01,2013-08-05 00:15:00,
2013-08-04 20:20:00,65.2,57.8,30.10,East,90,0.0,2.0,77,0.00,,---,0.00,VWS V14.01,2013-08-05 00:20:00,
2013-08-04 20:25:00,64.9,57.9,30.10,East,90,0.0,2.0,78,0.00,,---,0.00,VWS V14.01,2013-08-05 00:25:00,
2013-08-04 20:30:00,64.6,58.3,30.10,East,90,0.0,2.0,80,0.00,,---,0.00,VWS V14.01,2013-08-05 00:30:00,
2013-08-04 20:35:00,64.0,58.1,30.10,East,90,0.0,2.0,81,0.00,,---,0.00,VWS V14.01,2013-08-05 00:35:00,
2013-08-04 20:41:00,63.5,57.9,30.10,East,90,0.0,2.0,82,0.00,,---,0.00,VWS V14.01,2013-08-05 00:41:00,
2013-08-04 20:46:00,63.0,57.4,30.10,East,90,0.0,2.0,82,0.00,,---,0.00,VWS V14.01,2013-08-05 00:46:00,
2013-08-04 20:52:00,62.7,57.1,30.10,East,91,0.0,2.0,82,0.00,,---,0.00,VWS V14.01,2013-08-05 00:52:00,
2013-08-04 20:57:00,62.3,56.7,30.10,East,90,0.0,2.0,82,0.00,,---,0.00,VWS V14.01,2013-08-05 00:57:00,
2013-08-04 21:00:00,66.5,57.6,30.09,ENE,75,1.0,2.0,73,0.00,,---,0.00,VWS V14.01,2013-08-05 01:00:00,
2013-08-04 21:02:00,61.9,57.0,30.10,East,90,0.0,0.0,84,0.00,,---,0.00,VWS V14.01,2013-08-05 01:02:00,
2013-08-04 21:07:00,61.6,57.0,30.11,East,90,0.0,1.0,85,0.00,,---,0.00,VWS V14.01,2013-08-05 01:07:00,
2013-08-04 21:12:00,61.4,57.2,30.11,ENE,61,1.0,3.0,86,0.00,,---,0.00,VWS V14.01,2013-08-05 01:12:00,
2013-08-04 21:18:00,61.2,57.3,30.11,ENE,61,0.0,3.0,87,0.00,,---,0.00,VWS V14.01,2013-08-05 01:18:00,
2013-08-04 21:23:00,61.0,57.1,30.11,ENE,61,1.0,3.0,87,0.00,,---,0.00,VWS V14.01,2013-08-05 01:23:00,
2013-08-04 21:28:00,60.8,56.6,30.11,ENE,61,1.0,3.0,86,0.00,,---,0.00,VWS V14.01,2013-08-05 01:28:00,
2013-08-04 21:33:00,60.8,56.9,30.10,ENE,63,0.0,3.0,87,0.00,,---,0.00,VWS V14.01,2013-08-05 01:33:00,
2013-08-04 21:38:00,60.7,56.8,30.10,ENE,62,0.0,3.0,87,0.00,,---,0.00,VWS V14.01,2013-08-05 01:38:00,
2013-08-04 21:44:00,60.5,56.6,30.10,ENE,62,1.0,3.0,87,0.00,,---,0.00,VWS V14.01,2013-08-05 01:44:00,
2013-08-04 21:49:00,60.5,56.3,30.10,ENE,64,0.0,3.0,86,0.00,,---,0.00,VWS V14.01,2013-08-05 01:49:00,
2013-08-04 21:54:00,60.5,56.0,30.10,ENE,63,0.0,3.0,85,0.00,,---,0.00,VWS V14.01,2013-08-05 01:54:00,
2013-08-04 21:59:00,60.5,56.0,30.10,ENE,64,1.0,3.0,85,0.00,,---,0.00,VWS V14.01,2013-08-05 01:59:00,
2013-08-04 22:00:00,62.0,57.1,30.10,East,91,0.0,2.0,84,0.00,,---,0.00,VWS V14.01,2013-08-05 02:00:00,
2013-08-04 22:04:00,60.4,56.5,30.10,ENE,64,0.0,1.0,87,0.00,,---,0.00,VWS V14.01,2013-08-05 02:04:00,
2013-08-04 22:09:00,60.0,56.1,30.10,ENE,62,0.0,1.0,87,0.00,,---,0.00,VWS V14.01,2013-08-05 02:09:00,
2013-08-04 22:15:00,59.7,56.2,30.10,ENE,63,1.0,1.0,88,0.00,,---,0.00,VWS V14.01,2013-08-05 02:15:00,
2013-08-04 22:20:00,60.0,55.8,30.10,NE,53,4.0,5.0,86,0.00,,---,0.00,VWS V14.01,2013-08-05 02:20:00,
2013-08-04 22:25:00,60.7,55.5,30.10,East,82,2.0,5.0,83,0.00,,---,0.00,VWS V14.01,2013-08-05 02:25:00,
2013-08-04 22:29:00,61.0,55.1,30.10,East,96,2.0,5.0,81,0.00,,---,0.00,VWS V14.01,2013-08-05 02:29:00,
2013-08-04 22:35:00,61.2,55.0,30.10,East,89,2.0,5.0,80,0.00,,---,0.00,VWS V14.01,2013-08-05 02:35:00,
2013-08-04 22:40:00,61.3,54.7,30.10,ENE,75,2.0,5.0,79,0.00,,---,0.00,VWS V14.01,2013-08-05 02:40:00,
2013-08-04 22:45:00,61.3,54.4,30.10,East,82,2.0,5.0,78,0.00,,---,0.00,VWS V14.01,2013-08-05 02:45:00,
2013-08-04 22:50:00,61.2,53.9,30.10,East,79,2.0,5.0,77,0.00,,---,0.00,VWS V14.01,2013-08-05 02:50:00,
2013-08-04 22:55:00,61.2,53.6,30.10,East,88,2.0,5.0,76,0.00,,---,0.00,VWS V14.01,2013-08-05 02:55:00,
2013-08-04 23:00:00,61.1,54.2,30.09,ENE,77,2.0,5.0,78,0.00,,---,0.00,VWS V14.01,2013-08-05 03:00:00,
2013-08-04 23:05:00,60.7,53.1,30.09,East,96,2.0,2.0,76,0.00,,---,0.00,VWS V14.01,2013-08-05 03:05:00,
2013-08-04 23:11:00,60.5,52.2,30.09,ESE,113,1.0,3.0,74,0.00,,---,0.00,VWS V14.01,2013-08-05 03:11:00,
2013-08-04 23:15:00,60.6,52.3,30.09,ENE,68,1.0,3.0,74,0.00,,---,0.00,VWS V14.01,2013-08-05 03:15:00,
2013-08-04 23:21:00,60.3,52.3,30.09,ENE,65,2.0,3.0,75,0.00,,---,0.00,VWS V14.01,2013-08-05 03:21:00,
2013-08-04 23:27:00,60.0,52.1,30.09,ESE,105,1.0,3.0,75,0.00,,---,0.00,VWS V14.01,2013-08-05 03:27:00,
2013-08-04 23:32:00,60.0,51.7,30.10,ESE,108,0.0,3.0,74,0.00,,---,0.00,VWS V14.01,2013-08-05 03:32:00,
2013-08-04 23:37:00,59.8,51.9,30.10,ESE,108,0.0,3.0,75,0.00,,---,0.00,VWS V14.01,2013-08-05 03:37:00,
2013-08-04 23:42:00,59.1,51.9,30.09,ESE,108,0.0,3.0,77,0.00,,---,0.00,VWS V14.01,2013-08-05 03:42:00,
2013-08-04 23:47:00,58.4,52.6,30.09,East,91,1.0,3.0,81,0.00,,---,0.00,VWS V14.01,2013-08-05 03:47:00,
2013-08-04 23:52:00,57.6,52.5,30.09,East,92,0.0,3.0,83,0.00,,---,0.00,VWS V14.01,2013-08-05 03:52:00,
2013-08-04 23:57:00,57.2,53.1,30.10,East,92,0.0,3.0,86,0.00,,---,0.00,VWS V14.01,2013-08-05 03:57:00,